Time;durP1;ratioP1;P1;durP2;ratioP2;P2;SDS_P1;SDS_P2;PMS_P1;PMS_P2;Temp;Humidity;BMP_temperature;BMP_pressure;BME280_temperature;BME280_humidity;BME280_pressure;Samples;Min_cycle;Max_cycle;Signal;HPM_P1;HPM_P2
2023/12/07 00:00:15;;;;;;;11.87;8.20;;;;;;;4.45;66.42;96459.63;5006951;28;20196;-69
2023/12/07 00:02:40;;;;;;;8.63;7.43;;;;;;;4.35;66.89;96462.44;5007572;28;20450;-69
2023/12/07 00:05:06;;;;;;;9.63;8.20;;;;;;;4.47;66.81;96462.22;5008096;28;20937;-69
2023/12/07 00:07:32;;;;;;;9.07;6.93;;;;;;;4.65;65.90;96467.06;5006754;28;20872;-68
2023/12/07 00:09:57;;;;;;;7.93;7.10;;;;;;;4.60;66.52;96458.47;5007531;28;20197;-69
2023/12/07 00:12:22;;;;;;;9.57;7.53;;;;;;;4.65;66.30;96460.97;5007825;28;20196;-69
2023/12/07 00:14:48;;;;;;;8.30;7.17;;;;;;;4.71;65.76;96462.63;5007801;28;20176;-69
2023/12/07 00:17:14;;;;;;;7.50;6.50;;;;;;;4.63;65.55;96462.75;5007296;28;20694;-69
2023/12/07 00:19:39;;;;;;;8.87;6.90;;;;;;;4.59;65.52;96469.78;5007389;28;20176;-68
2023/12/07 00:22:05;;;;;;;7.17;6.47;;;;;;;4.54;66.02;96476.81;5007326;28;20423;-69
2023/12/07 00:24:30;;;;;;;8.27;7.10;;;;;;;4.48;65.82;96483.84;5007392;28;20188;-69
2023/12/07 00:26:56;;;;;;;9.73;7.40;;;;;;;4.54;66.43;96479.41;5007115;28;20196;-69
2023/12/07 00:29:21;;;;;;;8.43;6.97;;;;;;;4.53;66.21;96479.41;5007559;28;20275;-69
2023/12/07 00:31:47;;;;;;;12.93;6.97;;;;;;;4.64;65.49;96480.06;5007769;28;20172;-69
2023/12/07 00:34:12;;;;;;;9.87;8.10;;;;;;;4.59;65.54;96479.31;5007925;28;20256;-68
2023/12/07 00:36:39;;;;;;;10.97;6.63;;;;;;;4.60;65.71;96473.22;5007504;28;20200;-69
2023/12/07 00:39:04;;;;;;;9.27;7.53;;;;;;;4.63;65.69;96479.22;5007346;28;20710;-69
2023/12/07 00:41:29;;;;;;;9.10;7.43;;;;;;;4.58;65.88;96477.59;5006978;28;20481;-69
2023/12/07 00:43:55;;;;;;;7.43;6.33;;;;;;;4.58;65.40;96480.19;5007150;28;20172;-68
2023/12/07 00:46:20;;;;;;;11.27;7.40;;;;;;;4.51;65.77;96483.78;5007046;28;20667;-68
2023/12/07 00:48:46;;;;;;;11.73;7.23;;;;;;;4.57;65.53;96483.69;5007261;28;20236;-69
2023/12/07 00:51:11;;;;;;;8.03;6.20;;;;;;;4.58;65.37;96483.66;5007134;28;20625;-68
2023/12/07 00:53:37;;;;;;;9.57;7.50;;;;;;;4.49;65.95;96485.56;5007155;28;20180;-68
2023/12/07 00:56:04;;;;;;;10.90;7.30;;;;;;;4.48;65.98;96495.09;5006791;28;20253;-68
2023/12/07 00:58:29;;;;;;;31.87;7.77;;;;;;;4.49;nan;96488.16;5007068;28;20176;-68
2023/12/07 01:00:55;;;;;;;8.30;6.47;;;;;;;4.32;66.67;96491.91;5011149;28;20422;-68
2023/12/07 01:03:20;;;;;;;7.83;5.93;;;;;;;4.47;66.61;96489.94;5011236;28;20599;-68
2023/12/07 01:05:45;;;;;;;9.50;7.13;;;;;;;4.27;66.78;96495.47;5010903;28;20188;-68
2023/12/07 01:08:11;;;;;;;7.87;6.53;;;;;;;4.36;67.64;96496.16;5011247;28;20172;-68
2023/12/07 01:10:36;;;;;;;8.70;7.20;;;;;;;4.38;66.97;96504.81;5010856;28;20214;-68
2023/12/07 01:13:02;;;;;;;7.83;6.63;;;;;;;4.49;66.38;96498.53;5011074;28;20175;-68
2023/12/07 01:15:27;;;;;;;9.30;6.93;;;;;;;4.21;67.42;96501.66;5010639;28;20883;-68
2023/12/07 01:17:53;;;;;;;7.70;6.87;;;;;;;4.32;67.31;96510.09;5010721;28;20184;-68
2023/12/07 01:20:18;;;;;;;9.60;7.67;;;;;;;4.29;67.06;96515.34;5010947;28;20230;-68
2023/12/07 01:22:45;;;;;;;9.20;7.20;;;;;;;4.26;67.66;96512.81;5011273;28;20184;-68
2023/12/07 01:25:11;;;;;;;11.23;7.00;;;;;;;4.40;67.15;96517.78;5010717;28;20654;-68
2023/12/07 01:27:36;;;;;;;9.20;6.77;;;;;;;4.52;66.23;96508.91;5010850;28;20450;-68
2023/12/07 01:30:03;;;;;;;9.40;7.40;;;;;;;4.56;65.72;96507.94;5010775;28;20846;-68
2023/12/07 01:32:29;;;;;;;9.10;6.47;;;;;;;4.62;64.85;96513.03;5010950;28;20226;-67
2023/12/07 01:34:54;;;;;;;8.77;7.60;;;;;;;4.61;65.06;96521.72;5010921;28;20423;-68
2023/12/07 01:37:20;;;;;;;8.10;7.10;;;;;;;4.52;65.18;96521.91;5010305;28;20203;-67
2023/12/07 01:39:45;;;;;;;7.23;6.40;;;;;;;4.61;64.10;96526.94;5010531;28;20882;-69
2023/12/07 01:42:12;;;;;;;7.50;6.70;;;;;;;4.66;64.06;96525.09;5010743;28;20192;-68
2023/12/07 01:44:38;;;;;;;8.07;6.57;;;;;;;4.68;64.70;96533.72;5010224;28;20263;-68
2023/12/07 01:47:04;;;;;;;15.93;6.43;;;;;;;4.45;64.76;96537.59;5010189;28;20434;-68
2023/12/07 01:49:30;;;;;;;8.80;7.10;;;;;;;4.58;65.42;96537.34;5010908;28;20453;-68
2023/12/07 01:51:57;;;;;;;9.93;7.10;;;;;;;4.48;65.64;96530.63;5011052;28;20485;-68
2023/12/07 01:54:22;;;;;;;9.93;6.10;;;;;;;4.40;65.45;96533.38;5010821;28;20415;-70
2023/12/07 01:56:48;;;;;;;7.00;6.23;;;;;;;4.32;66.13;96536.06;5010312;28;21036;-69
2023/12/07 01:59:14;;;;;;;11.43;6.97;;;;;;;4.30;66.11;96527.47;5005515;28;20184;-69
2023/12/07 02:01:40;;;;;;;9.40;8.10;;;;;;;4.37;65.74;96534.28;5008299;28;20541;-69
2023/12/07 02:04:05;;;;;;;11.07;7.00;;;;;;;4.29;66.30;96530.94;5008144;28;20485;-68
2023/12/07 02:06:30;;;;;;;9.17;6.90;;;;;;;4.19;66.83;96534.59;5009816;28;20568;-68
2023/12/07 02:08:56;;;;;;;9.00;7.57;;;;;;;4.13;66.95;96529.47;5001719;28;20720;-69
2023/12/07 02:11:22;;;;;;;11.93;7.43;;;;;;;4.21;66.28;96535.41;4998049;28;20284;-69
2023/12/07 02:13:48;;;;;;;8.20;6.73;;;;;;;4.01;66.75;96539.19;4990152;28;20181;-69
2023/12/07 02:16:34;;;;;;;8.87;7.13;;;;;;;4.00;67.11;96534.88;4990000;28;20236;-70
2023/12/07 02:19:23;;;;;;;11.00;7.70;;;;;;;4.05;66.98;96532.22;4990268;28;20416;-68
2023/12/07 02:21:56;;;;;;;9.47;7.20;;;;;;;3.94;67.45;96532.38;4989916;28;21354;-69
2023/12/07 02:24:22;;;;;;;9.90;7.13;;;;;;;3.86;67.93;96536.84;4990404;28;20443;-69
2023/12/07 02:26:48;;;;;;;9.03;8.00;;;;;;;3.75;67.96;96533.53;4990780;28;20462;-69
2023/12/07 02:29:14;;;;;;;11.10;7.70;;;;;;;3.54;68.13;96538.19;4991011;28;20420;-69
2023/12/07 02:31:40;;;;;;;8.67;7.20;;;;;;;3.49;68.16;96533.91;4990789;28;20478;-68
2023/12/07 02:34:05;;;;;;;9.27;7.90;;;;;;;3.74;68.01;96535.28;5003081;28;20648;-69
2023/12/07 02:36:34;;;;;;;11.27;8.00;;;;;;;3.72;67.84;96534.44;5008981;28;20227;-69
2023/12/07 02:39:03;;;;;;;14.50;8.60;;;;;;;3.79;67.48;96537.81;5009439;28;20666;-68
2023/12/07 02:41:31;;;;;;;9.57;7.27;;;;;;;3.84;67.57;96529.94;5009207;28;20450;-68
2023/12/07 02:43:57;;;;;;;10.77;8.60;;;;;;;3.78;67.07;96541.25;5009197;28;20416;-68
2023/12/07 02:46:24;;;;;;;10.87;8.47;;;;;;;3.71;67.66;96535.34;5008958;28;20449;-68
2023/12/07 02:48:50;;;;;;;9.80;8.17;;;;;;;3.72;67.16;96537.03;5009089;28;20318;-68
2023/12/07 02:51:15;;;;;;;10.23;8.50;;;;;;;3.66;67.38;96544.03;5008928;28;20535;-68
2023/12/07 02:53:41;;;;;;;10.47;9.23;;;;;;;3.79;67.17;96546.44;5008989;28;20780;-68
2023/12/07 02:56:07;;;;;;;12.17;9.27;;;;;;;3.67;67.99;96541.44;5008498;28;20270;-68
2023/12/07 02:58:32;;;;;;;11.73;8.60;;;;;;;3.67;67.43;96541.44;5008960;28;20259;-69
2023/12/07 03:00:57;;;;;;;11.20;9.10;;;;;;;3.69;67.32;96542.28;5008979;28;20165;-68
2023/12/07 03:03:23;;;;;;;10.30;8.43;;;;;;;3.47;67.88;96544.28;5009084;28;20710;-68
2023/12/07 03:05:48;;;;;;;10.17;9.13;;;;;;;3.46;68.45;96542.59;5008887;28;20200;-68
2023/12/07 03:08:13;;;;;;;10.80;9.10;;;;;;;3.52;68.18;96547.72;5009122;28;20705;-68
2023/12/07 03:10:39;;;;;;;12.47;9.30;;;;;;;3.45;68.61;96538.31;5009332;28;20235;-68
2023/12/07 03:13:04;;;;;;;11.40;9.10;;;;;;;3.36;68.91;96530.66;5008473;28;20176;-68
2023/12/07 03:15:29;;;;;;;11.57;8.67;;;;;;;3.43;68.37;96532.28;5008916;28;20279;-68
2023/12/07 03:17:55;;;;;;;11.97;9.20;;;;;;;3.42;68.83;96537.47;5008505;28;20283;-68
2023/12/07 03:20:21;;;;;;;12.23;9.10;;;;;;;3.24;69.37;96526.47;5008925;28;20176;-68
2023/12/07 03:22:46;;;;;;;9.60;8.60;;;;;;;3.11;69.64;96530.94;5008219;28;20175;-68
2023/12/07 03:25:11;;;;;;;14.27;10.53;;;;;;;3.30;69.40;96535.91;5008597;28;20175;-68
2023/12/07 03:27:37;;;;;;;16.87;10.23;;;;;;;3.27;69.60;96531.59;5008526;28;20179;-68
2023/12/07 03:30:03;;;;;;;16.10;9.80;;;;;;;3.38;69.32;96542.72;5008621;28;20204;-69
2023/12/07 03:32:28;;;;;;;13.37;9.77;;;;;;;3.33;69.17;96543.63;5008160;28;20624;-69
2023/12/07 03:34:53;;;;;;;14.30;9.47;;;;;;;3.32;69.15;96537.59;4989260;28;20176;-69
2023/12/07 03:37:19;;;;;;;13.50;10.07;;;;;;;3.32;69.12;96547.97;4988751;28;20259;-69
2023/12/07 03:39:44;;;;;;;16.90;10.00;;;;;;;3.33;69.14;96541.03;4988872;28;20632;-69
2023/12/07 03:42:09;;;;;;;13.33;9.17;;;;;;;3.26;69.06;96535.09;4989323;28;20208;-69
2023/12/07 03:44:35;;;;;;;12.13;8.90;;;;;;;3.21;68.55;96541.19;4989303;28;20181;-69
2023/12/07 03:47:01;;;;;;;17.80;10.10;;;;;;;3.22;69.02;96538.59;4990593;28;20579;-69
2023/12/07 03:49:26;;;;;;;12.83;8.63;;;;;;;3.07;69.50;96534.47;4990652;28;20193;-69
2023/12/07 03:51:51;;;;;;;9.10;8.10;;;;;;;3.12;69.38;96531.81;4989196;28;20533;-69
2023/12/07 03:54:17;;;;;;;11.37;9.40;;;;;;;3.11;68.97;96541.31;4989556;28;20256;-68
2023/12/07 03:56:42;;;;;;;10.50;9.00;;;;;;;3.15;69.06;96536.97;4988963;28;20200;-68
2023/12/07 03:59:07;;;;;;;12.60;9.70;;;;;;;3.14;68.84;96543.00;4988800;28;20482;-68
2023/12/07 04:01:33;;;;;;;12.70;9.17;;;;;;;3.16;68.78;96536.06;4988705;28;20181;-68
2023/12/07 04:03:59;;;;;;;9.10;7.93;;;;;;;3.21;68.81;96543.78;4988774;28;20176;-68
2023/12/07 04:06:25;;;;;;;9.60;8.47;;;;;;;3.08;69.07;96551.72;4988434;28;20255;-68
2023/12/07 04:08:50;;;;;;;11.50;8.33;;;;;;;3.15;69.20;96547.34;4988407;28;20832;-68
2023/12/07 04:11:16;;;;;;;12.73;10.33;;;;;;;3.06;69.46;96545.69;4988206;28;20287;-68
2023/12/07 04:13:43;;;;;;;9.40;8.03;;;;;;;2.99;69.74;96549.25;4988395;28;20173;-68
2023/12/07 04:16:09;;;;;;;10.13;9.10;;;;;;;3.00;69.64;96553.56;4988054;28;20307;-68
2023/12/07 04:18:35;;;;;;;12.10;9.37;;;;;;;2.94;69.79;96548.44;4987934;28;20462;-68
2023/12/07 04:21:01;;;;;;;10.97;9.03;;;;;;;2.89;69.67;96555.41;4988012;28;20416;-69
2023/12/07 04:23:26;;;;;;;14.77;10.07;;;;;;;3.00;69.44;96558.75;4988429;28;20177;-68
2023/12/07 04:25:51;;;;;;;14.63;10.00;;;;;;;3.08;69.72;96564.69;4987571;28;20200;-69
2023/12/07 04:28:17;;;;;;;16.30;11.30;;;;;;;3.01;69.63;96563.06;4987863;28;20208;-69
2023/12/07 04:30:42;;;;;;;12.33;10.10;;;;;;;3.03;69.55;96568.22;4987865;28;20215;-69
2023/12/07 04:33:08;;;;;;;12.63;9.57;;;;;;;3.05;69.54;96566.44;4987582;28;20275;-68
2023/12/07 04:35:34;;;;;;;11.10;9.30;;;;;;;3.07;69.53;96564.69;4987320;28;20565;-69
2023/12/07 04:37:59;;;;;;;12.07;9.50;;;;;;;3.10;68.98;96562.94;4987374;28;20187;-68
2023/12/07 04:40:25;;;;;;;12.10;10.17;;;;;;;3.09;68.98;96574.19;4987833;28;20408;-68
2023/12/07 04:42:51;;;;;;;12.83;9.53;;;;;;;3.01;69.21;96573.41;4987879;28;20180;-68
2023/12/07 04:45:16;;;;;;;14.97;10.03;;;;;;;2.93;69.77;96567.47;4987822;28;20184;-68
2023/12/07 04:47:42;;;;;;;12.33;9.97;;;;;;;2.98;69.38;96570.88;4988480;28;20215;-68
2023/12/07 04:50:07;;;;;;;12.57;9.63;;;;;;;2.82;70.24;96579.69;4988944;28;20204;-71
2023/12/07 04:52:33;;;;;;;11.00;8.80;;;;;;;2.74;70.66;96583.22;4987994;28;20173;-69
2023/12/07 04:54:59;;;;;;;11.40;9.73;;;;;;;2.87;70.11;96581.34;4987979;28;20283;-69
2023/12/07 04:57:24;;;;;;;13.83;10.43;;;;;;;3.04;69.57;96575.13;4987896;28;20197;-71
2023/12/07 04:59:50;;;;;;;16.10;10.20;;;;;;;2.96;68.96;96576.06;4987660;28;20181;-69
2023/12/07 05:02:18;;;;;;;12.90;9.60;;;;;;;2.94;69.77;96577.81;4987950;28;20280;-69
2023/12/07 05:04:45;;;;;;;13.00;9.70;;;;;;;2.97;69.55;96577.75;4988036;28;20267;-70
2023/12/07 05:07:11;;;;;;;13.80;10.53;;;;;;;2.96;69.42;96570.03;4987385;28;20467;-70
2023/12/07 05:09:38;;;;;;;12.07;9.87;;;;;;;2.95;69.66;96578.66;4987560;28;20463;-69
2023/12/07 05:12:03;;;;;;;11.90;9.47;;;;;;;2.95;69.73;96566.59;4988204;28;20424;-69
2023/12/07 05:14:34;;;;;;;15.43;9.30;;;;;;;2.83;70.44;96571.03;4992938;28;20523;-69
2023/12/07 05:17:00;;;;;;;18.70;11.80;;;;;;;3.06;69.82;96569.03;5005354;28;20224;-68
2023/12/07 05:19:25;;;;;;;22.83;12.13;;;;;;;3.04;69.08;96570.78;5005498;28;20409;-69
2023/12/07 05:21:51;;;;;;;14.40;11.77;;;;;;;3.04;68.95;96572.53;5006880;28;20267;-69
2023/12/07 05:24:17;;;;;;;12.20;10.20;;;;;;;3.06;69.29;96571.63;5006869;28;20266;-68
2023/12/07 05:26:43;;;;;;;11.60;9.60;;;;;;;3.09;69.38;96575.91;5007381;28;21010;-70
2023/12/07 05:29:09;;;;;;;12.60;9.83;;;;;;;3.04;69.24;96577.72;5007393;28;20653;-69
2023/12/07 05:31:35;;;;;;;14.80;10.90;;;;;;;2.98;69.36;96570.88;5006913;28;20407;-70
2023/12/07 05:34:01;;;;;;;14.17;10.30;;;;;;;3.04;69.21;96577.72;5006812;28;20412;-69
2023/12/07 05:36:26;;;;;;;13.23;10.03;;;;;;;2.92;69.44;96579.56;5005657;28;20199;-69
2023/12/07 05:38:52;;;;;;;11.80;9.50;;;;;;;2.71;70.47;96578.03;5005717;28;20168;-69
2023/12/07 05:41:17;;;;;;;12.30;9.83;;;;;;;2.75;70.65;96579.75;5005727;28;20604;-68
2023/12/07 05:43:43;;;;;;;14.33;11.20;;;;;;;2.81;70.52;96578.84;5005507;28;20179;-69
2023/12/07 05:46:08;;;;;;;15.20;12.00;;;;;;;2.91;70.04;96584.78;5003934;28;20636;-69
2023/12/07 05:48:34;;;;;;;13.00;11.57;;;;;;;2.72;70.62;96590.16;4989881;28;20192;-69
2023/12/07 05:51:01;;;;;;;15.73;11.37;;;;;;;2.81;69.67;96589.19;5001997;28;20211;-68
2023/12/07 05:53:27;;;;;;;14.37;10.87;;;;;;;2.91;69.80;96584.78;5004795;28;20932;-70
2023/12/07 05:55:52;;;;;;;13.50;11.23;;;;;;;2.85;69.94;96590.00;4999909;28;20522;-69
2023/12/07 05:58:17;;;;;;;15.33;12.10;;;;;;;2.80;70.08;96587.47;5006097;28;20239;-69
2023/12/07 06:00:43;;;;;;;12.63;11.13;;;;;;;2.81;69.81;96588.31;4999313;28;20290;-69
2023/12/07 06:03:09;;;;;;;10.53;9.43;;;;;;;2.84;70.00;96603.88;4998689;28;20213;-69
2023/12/07 06:05:37;;;;;;;13.10;10.47;;;;;;;2.78;69.81;96599.59;5004316;28;20914;-70
2023/12/07 06:08:04;;;;;;;12.43;9.50;;;;;;;2.80;70.07;96599.56;5007803;28;20196;-68
2023/12/07 06:10:29;;;;;;;16.27;11.33;;;;;;;2.71;69.97;96603.97;4997083;28;20542;-69
2023/12/07 06:12:56;;;;;;;14.67;10.60;;;;;;;2.68;70.06;96600.56;4989164;28;20427;-69
2023/12/07 06:15:22;;;;;;;13.90;10.57;;;;;;;2.24;71.72;96602.66;5001751;28;20269;-69
2023/12/07 06:17:48;;;;;;;15.43;11.50;;;;;;;2.42;71.80;96603.38;4977046;28;21134;-71
2023/12/07 06:20:14;;;;;;;19.20;11.73;;;;;;;2.65;70.88;96598.84;4997703;28;20473;-69
2023/12/07 06:22:40;;;;;;;17.20;11.77;;;;;;;2.83;70.25;96597.78;5003762;28;20936;-70
2023/12/07 06:25:06;;;;;;;14.30;11.80;;;;;;;2.75;69.88;96595.28;4997208;28;20225;-69
2023/12/07 06:27:33;;;;;;;17.07;12.60;;;;;;;2.82;69.95;96595.25;4997686;28;20196;-69
2023/12/07 06:29:59;;;;;;;12.60;10.57;;;;;;;2.60;69.54;96598.03;5005878;28;20466;-68
2023/12/07 06:32:25;;;;;;;17.33;12.60;;;;;;;2.51;70.21;96598.13;5008421;28;20502;-68
2023/12/07 06:34:50;;;;;;;16.13;11.60;;;;;;;2.49;70.42;96595.53;4989921;28;20188;-69
2023/12/07 06:37:17;;;;;;;20.80;10.17;;;;;;;2.52;70.24;96592.06;4989094;28;20215;-69
2023/12/07 06:39:43;;;;;;;21.70;12.07;;;;;;;2.37;70.83;96593.06;4989414;28;20277;-69
2023/12/07 06:42:08;;;;;;;22.37;11.20;;;;;;;2.38;70.62;96596.50;4986833;28;20444;-70
2023/12/07 06:44:34;;;;;;;17.70;11.97;;;;;;;2.40;70.57;96605.13;4989031;28;20176;-70
2023/12/07 06:47:03;;;;;;;19.80;12.80;;;;;;;2.49;70.04;96592.94;4989269;28;21065;-69
2023/12/07 06:49:28;;;;;;;14.23;11.77;;;;;;;2.49;69.66;96595.53;4989194;28;20219;-70
2023/12/07 06:51:53;;;;;;;22.53;14.00;;;;;;;2.33;69.45;96593.94;4988440;28;20471;-70
2023/12/07 06:54:19;;;;;;;15.47;11.97;;;;;;;2.30;70.05;96600.03;4989268;28;20543;-69
2023/12/07 06:56:46;;;;;;;18.93;13.20;;;;;;;2.17;70.44;96602.72;4988837;28;20288;-70
2023/12/07 06:59:11;;;;;;;21.50;15.83;;;;;;;2.43;69.58;96594.72;4988971;28;20687;-69
2023/12/07 07:01:38;;;;;;;23.83;13.20;;;;;;;2.06;70.33;96605.41;5003233;28;20456;-69
2023/12/07 07:04:04;;;;;;;20.80;13.63;;;;;;;2.01;70.31;96595.06;4989721;28;20200;-69
2023/12/07 07:06:29;;;;;;;19.30;13.80;;;;;;;2.03;70.46;96600.22;4989130;28;20456;-69
2023/12/07 07:08:55;;;;;;;21.97;13.00;;;;;;;2.31;69.50;96601.72;4989486;28;20227;-70
2023/12/07 07:11:20;;;;;;;17.00;12.23;;;;;;;2.33;69.37;96606.91;4988924;28;20224;-69
2023/12/07 07:13:46;;;;;;;16.37;11.40;;;;;;;2.33;69.06;96599.97;4988926;28;20172;-68
2023/12/07 07:16:11;;;;;;;18.97;12.30;;;;;;;2.20;69.13;96594.94;4988787;28;20248;-69
2023/12/07 07:18:40;;;;;;;19.50;12.67;;;;;;;2.23;69.41;96603.53;4989349;28;20181;-69
2023/12/07 07:21:09;;;;;;;19.73;12.23;;;;;;;2.36;69.02;96608.59;4990504;28;20293;-69
2023/12/07 07:23:35;;;;;;;15.87;12.00;;;;;;;2.32;68.97;96607.78;4990781;28;20503;-70
2023/12/07 07:26:00;;;;;;;11.43;9.87;;;;;;;2.33;68.79;96604.31;4990786;28;20999;-69
2023/12/07 07:28:26;;;;;;;14.77;10.40;;;;;;;2.02;69.66;96607.13;4990788;28;20212;-69
2023/12/07 07:30:53;;;;;;;13.63;10.57;;;;;;;2.09;69.35;96607.97;4989026;28;20216;-69
2023/12/07 07:33:18;;;;;;;16.57;12.17;;;;;;;2.20;68.75;96610.47;4991049;28;20177;-69
2023/12/07 07:35:44;;;;;;;40.40;12.00;;;;;;;2.26;68.34;96603.50;4990411;28;20463;-68
2023/12/07 07:38:14;;;;;;;32.77;13.50;;;;;;;2.34;67.85;96606.03;4990142;28;20185;-69
2023/12/07 07:40:39;;;;;;;23.17;11.33;;;;;;;2.18;68.52;96602.72;4990298;28;20644;-68
2023/12/07 07:43:05;;;;;;;19.83;11.70;;;;;;;2.31;67.19;96612.09;4989587;28;20420;-67
2023/12/07 07:45:31;;;;;;;14.13;10.53;;;;;;;2.43;67.04;96603.34;4990128;28;20197;-68
2023/12/07 07:47:56;;;;;;;16.60;11.50;;;;;;;2.66;66.31;96599.72;4990685;28;20180;-68
2023/12/07 07:50:22;;;;;;;16.67;12.37;;;;;;;2.84;65.63;96609.03;4990410;28;20201;-71
2023/12/07 07:52:47;;;;;;;25.10;11.97;;;;;;;2.82;65.43;96605.59;4990602;28;20943;-69
2023/12/07 07:55:13;;;;;;;18.53;12.23;;;;;;;2.94;65.17;96601.13;5004839;28;20187;-69
2023/12/07 07:57:39;;;;;;;21.37;11.97;;;;;;;2.74;65.22;96608.25;5008663;28;20189;-71
2023/12/07 08:00:05;;;;;;;49.03;14.53;;;;;;;2.85;65.36;96602.97;5008623;28;20184;-70
2023/12/07 08:02:31;;;;;;;38.17;15.77;;;;;;;3.14;64.87;96598.34;5007988;28;20369;-68
2023/12/07 08:04:56;;;;;;;39.07;14.83;;;;;;;3.38;63.64;96606.72;5008131;28;20862;-69
2023/12/07 08:07:22;;;;;;;25.63;12.60;;;;;;;3.94;62.18;96604.22;5006357;28;20200;-69
2023/12/07 08:09:48;;;;;;;24.20;12.93;;;;;;;4.17;61.12;96596.09;5008188;28;20564;-70
2023/12/07 08:12:14;;;;;;;23.93;13.23;;;;;;;3.94;61.30;96602.47;5009146;28;20215;-68
2023/12/07 08:14:39;;;;;;;22.00;13.20;;;;;;;3.78;61.38;96606.16;5007097;28;20177;-70
2023/12/07 08:17:08;;;;;;;22.77;14.07;;;;;;;3.41;62.08;96604.06;5006089;28;20470;-69
2023/12/07 08:19:34;;;;;;;18.47;12.13;;;;;;;3.46;62.44;96610.06;4997048;28;20309;-69
2023/12/07 08:21:59;;;;;;;17.40;12.17;;;;;;;3.71;61.19;96609.72;5011560;28;21112;-70
2023/12/07 08:24:25;;;;;;;21.83;13.73;;;;;;;3.59;61.31;96610.75;5006730;28;20192;-70
2023/12/07 08:26:51;;;;;;;18.83;12.83;;;;;;;3.37;61.91;96605.81;5002409;28;20196;-68
2023/12/07 08:29:16;;;;;;;18.17;11.23;;;;;;;3.65;61.34;96592.50;5002373;28;20191;-69
2023/12/07 08:31:44;;;;;;;22.20;13.67;;;;;;;5.35;56.41;96590.53;4994011;28;20177;-69
2023/12/07 08:34:10;;;;;;;18.97;14.23;;;;;;;7.56;50.50;96572.03;4998158;28;20503;-70
2023/12/07 08:36:36;;;;;;;19.20;13.27;;;;;;;8.69;46.56;96559.81;4993129;28;20460;-69
2023/12/07 08:39:01;;;;;;;14.93;11.57;;;;;;;9.07;45.47;96568.09;5006594;28;20216;-69
2023/12/07 08:41:27;;;;;;;17.27;11.47;;;;;;;8.03;46.67;96572.38;5010625;28;20397;-69
2023/12/07 08:43:53;;;;;;;16.40;11.80;;;;;;;8.22;46.74;96570.03;5010306;28;20168;-70
2023/12/07 08:46:19;;;;;;;15.10;11.50;;;;;;;9.07;45.13;96576.84;5010109;28;20286;-68
2023/12/07 08:48:44;;;;;;;15.50;11.63;;;;;;;9.85;42.77;96560.00;5010559;28;20168;-69
2023/12/07 08:51:10;;;;;;;16.47;12.03;;;;;;;9.69;43.39;96567.59;5008276;28;20215;-69
2023/12/07 08:53:36;;;;;;;16.70;12.97;;;;;;;7.88;46.56;96583.31;5008666;28;20172;-69
2023/12/07 08:56:02;;;;;;;17.20;12.17;;;;;;;7.96;46.79;96586.53;5008095;28;20195;-70
2023/12/07 08:58:27;;;;;;;16.50;13.47;;;;;;;6.97;48.24;96575.47;5009742;28;20269;-69
2023/12/07 09:00:53;;;;;;;19.80;11.80;;;;;;;6.09;51.57;96587.19;5008542;28;20404;-69
2023/12/07 09:03:19;;;;;;;14.90;10.93;;;;;;;5.83;52.65;96598.16;5010224;28;20176;-69
2023/12/07 09:05:44;;;;;;;17.97;12.73;;;;;;;5.86;52.53;96591.16;5010339;28;20502;-69
2023/12/07 09:08:10;;;;;;;14.80;10.83;;;;;;;5.05;54.62;96598.88;5026341;28;20171;-70
2023/12/07 09:10:35;;;;;;;12.93;10.53;;;;;;;5.68;54.09;96591.56;5011080;28;20203;-69
2023/12/07 09:13:01;;;;;;;13.80;11.47;;;;;;;6.40;51.37;96591.69;5012509;28;20173;-69
2023/12/07 09:15:26;;;;;;;14.23;10.00;;;;;;;5.63;53.53;96606.44;5014062;28;20595;-70
2023/12/07 09:17:52;;;;;;;13.83;10.03;;;;;;;6.61;51.97;96596.34;5013306;28;20242;-69
2023/12/07 09:20:18;;;;;;;13.47;9.93;;;;;;;7.71;48.70;96589.91;5012505;28;20255;-69
2023/12/07 09:22:48;;;;;;;13.57;9.87;;;;;;;8.59;46.21;96590.66;5015824;28;20168;-69
2023/12/07 09:25:15;;;;;;;12.03;10.00;;;;;;;8.92;44.89;96590.44;5015732;28;20175;-68
2023/12/07 09:27:41;;;;;;;12.50;10.13;;;;;;;9.69;43.13;96585.94;5014555;28;20414;-68
2023/12/07 09:30:10;;;;;;;11.20;9.40;;;;;;;9.58;43.85;96584.63;5013558;28;20469;-69
2023/12/07 09:32:44;;;;;;;40.00;11.37;;;;;;;8.60;44.95;96589.78;5012747;28;20208;-68
2023/12/07 09:35:19;;;;;;;16.17;8.73;;;;;;;8.26;46.52;96587.34;4994395;28;20411;-68
2023/12/07 09:37:45;;;;;;;12.10;8.47;;;;;;;7.55;47.57;96592.09;4993671;28;20415;-67
2023/12/07 09:40:17;;;;;;;12.50;8.43;;;;;;;7.19;48.36;96594.84;4992438;28;20420;-68
2023/12/07 09:42:42;;;;;;;10.83;8.40;;;;;;;7.40;48.17;96587.31;4993372;28;20416;-68
2023/12/07 09:45:08;;;;;;;13.97;8.30;;;;;;;7.46;49.02;96586.28;4993041;28;20415;-68
2023/12/07 09:47:34;;;;;;;19.17;10.10;;;;;;;6.51;50.86;96584.47;4993209;28;20216;-69
2023/12/07 09:50:01;;;;;;;59.23;15.20;;;;;;;7.53;49.39;96577.38;4994322;28;20487;-68
2023/12/07 09:52:27;;;;;;;65.80;14.47;;;;;;;7.88;48.08;96572.88;4994881;28;20179;-68
2023/12/07 09:54:54;;;;;;;60.30;14.30;;;;;;;7.67;48.59;96574.34;4994391;28;20408;-69
2023/12/07 09:57:21;;;;;;;13.07;10.17;;;;;;;5.81;53.09;96573.91;4993844;28;21080;-69
2023/12/07 09:59:46;;;;;;;9.90;8.70;;;;;;;5.30;54.16;96564.59;4994212;28;20459;-68
2023/12/07 10:02:13;;;;;;;17.00;9.70;;;;;;;5.39;55.31;96564.41;4994151;28;20436;-68
2023/12/07 10:04:39;;;;;;;30.53;13.73;;;;;;;5.42;55.47;96566.94;4993493;28;20176;-69
2023/12/07 10:07:08;;;;;;;45.03;15.90;;;;;;;5.64;55.15;96559.50;4992936;28;20895;-69
2023/12/07 10:09:37;;;;;;;40.43;19.20;;;;;;;5.40;56.32;96549.63;4993361;28;20411;-70
2023/12/07 10:12:04;;;;;;;23.33;14.53;;;;;;;5.27;56.29;96552.50;4993405;28;20488;-70
2023/12/07 10:14:30;;;;;;;22.87;13.93;;;;;;;5.45;56.20;96550.41;4993065;28;20451;-69
2023/12/07 10:16:56;;;;;;;20.37;14.50;;;;;;;6.56;53.81;96538.25;4991362;28;20553;-69
2023/12/07 10:19:22;;;;;;;30.10;17.53;;;;;;;6.62;53.31;96538.13;4993614;28;20680;-70
2023/12/07 10:21:52;;;;;;;20.40;14.13;;;;;;;6.78;52.48;96530.75;4992228;28;20436;-68
2023/12/07 10:24:19;;;;;;;14.40;12.57;;;;;;;6.60;52.86;96528.63;4991121;28;20410;-69
2023/12/07 10:26:46;;;;;;;22.37;12.57;;;;;;;6.77;52.83;96522.03;4992012;28;20435;-69
2023/12/07 10:29:11;;;;;;;22.20;14.70;;;;;;;6.45;53.75;96519.44;4993302;28;20415;-68
2023/12/07 10:31:37;;;;;;;20.20;15.63;;;;;;;6.03;54.80;96520.47;4990839;28;20452;-68
2023/12/07 10:34:04;;;;;;;20.50;16.50;;;;;;;6.45;53.01;96509.00;5006067;28;20612;-69
2023/12/07 10:36:30;;;;;;;17.27;13.30;;;;;;;6.32;53.69;96511.06;5012471;28;20207;-68
2023/12/07 10:38:56;;;;;;;12.80;10.93;;;;;;;6.67;52.99;96504.94;5010894;28;20406;-69
2023/12/07 10:41:24;;;;;;;12.93;11.03;;;;;;;6.39;53.75;96498.75;5010986;28;20418;-68
2023/12/07 10:43:53;;;;;;;11.97;9.83;;;;;;;5.50;56.11;96501.69;5010538;28;20180;-69
2023/12/07 10:46:20;;;;;;;19.17;15.37;;;;;;;4.69;59.50;96493.00;5010989;28;20438;-69
2023/12/07 10:48:47;;;;;;;20.03;16.50;;;;;;;5.34;58.16;96489.91;5011854;28;20407;-68
2023/12/07 10:51:26;;;;;;;22.40;16.23;;;;;;;4.66;59.58;96494.75;5010595;28;20455;-68
2023/12/07 10:53:53;;;;;;;23.97;15.40;;;;;;;5.67;57.46;96488.28;5010442;28;20992;-69
2023/12/07 10:56:32;;;;;;;21.87;15.47;;;;;;;4.61;59.77;96496.59;5010784;28;20474;-68
2023/12/07 10:58:58;;;;;;;17.83;14.30;;;;;;;6.27;56.38;96479.06;5010652;28;20411;-68
2023/12/07 11:01:25;;;;;;;19.07;15.27;;;;;;;6.45;55.25;96469.91;5008604;28;20419;-67
2023/12/07 11:03:52;;;;;;;19.80;16.27;;;;;;;6.03;55.39;96463.16;5009932;28;20928;-69
2023/12/07 11:06:18;;;;;;;20.17;15.10;;;;;;;6.31;55.48;96463.31;5009283;28;21068;-69
2023/12/07 11:08:49;;;;;;;21.73;15.93;;;;;;;6.10;55.23;96464.72;5009326;28;20526;-68
2023/12/07 11:11:20;;;;;;;29.87;19.30;;;;;;;6.30;54.95;96456.38;5007741;28;20451;-69
2023/12/07 11:14:18;;;;;;;24.60;17.07;;;;;;;7.02;53.68;96456.16;5009398;28;20845;-68
2023/12/07 11:16:46;;;;;;;20.87;14.03;;;;;;;5.97;55.38;96463.31;4986121;28;20826;-68
2023/12/07 11:19:32;;;;;;;16.23;13.67;;;;;;;6.48;55.17;96468.09;5009219;28;20419;-68
2023/12/07 11:21:57;;;;;;;17.53;12.57;;;;;;;6.95;53.65;96471.13;5009202;28;20925;-68
2023/12/07 11:24:23;;;;;;;16.87;13.20;;;;;;;6.54;53.24;96470.53;5009501;28;20411;-68
2023/12/07 11:26:52;;;;;;;15.97;12.13;;;;;;;6.58;53.27;96474.75;5009015;28;20279;-68